»·PEaware :: N258GT KBFL-KMER

N258GT :: KBFL-KMER

FLIGHT INFORMATION

Flight Status: Arrived
Operator: Privately registered:
United States
More flights under this callsign
Pilot: Jamie L. (18851)
Aircraft: BEECH AIRCRAFT A90-E90 KING AIR
(BE9L)
More flights by this aircraft type
Origin: KBFL Meadows
United States
Destination: KMER Castle
United States
More flights between these airports :: More routes between these airports
Route: +EHF VIS HYP
File this flight plan on PilotEdge
Remarks:
Altitude:
(Current/Filed)
11,000ft
Speed:
(Current/Filed)
220kts
Departed: 30-Apr-18 11:52 AM
Arrived: 30-Apr-18 12:35 PM
Distance/Time
Traveled:
137nm/0:43
Distance/Time
To Go:
Arrived

Flight Plot

Page will automatically refresh every two minutes.


Map Options




Map Legend


Flown Route
Filed Route
Departure Airport
Arrival Airport
Navaid (VOR, NDB)
Fix

Horizontal Profiles

Position Reports

Time Latitude Longitude Heading Altitude Ground
Speed
30-Apr-18 11:08 35.433004 -119.049704 217 512ft 0kts
30-Apr-18 11:09 35.433004 -119.049704 217 512ft 0kts
30-Apr-18 11:10 35.433004 -119.049704 217 512ft 0kts
30-Apr-18 11:11 35.433004 -119.049704 217 512ft 0kts
30-Apr-18 11:12 35.433004 -119.049704 217 512ft 0kts
30-Apr-18 11:13 35.433004 -119.049704 217 512ft 0kts
30-Apr-18 11:14 35.433004 -119.049704 217 512ft 0kts
30-Apr-18 11:16 35.433004 -119.049704 217 512ft 0kts
30-Apr-18 11:17 35.433004 -119.049704 217 512ft 0kts
30-Apr-18 11:18 35.433004 -119.049704 217 512ft 0kts
30-Apr-18 11:19 35.433004 -119.049704 217 512ft 0kts
30-Apr-18 11:20 35.433004 -119.049704 217 512ft 0kts
30-Apr-18 11:21 35.433004 -119.049704 217 512ft 0kts
30-Apr-18 11:22 35.433004 -119.049704 217 512ft 0kts
30-Apr-18 11:23 35.433004 -119.049704 217 512ft 0kts
30-Apr-18 11:24 35.433004 -119.049704 217 512ft 0kts
30-Apr-18 11:25 35.433004 -119.049704 217 512ft 0kts
30-Apr-18 11:26 35.433004 -119.049704 217 512ft 0kts
30-Apr-18 11:27 35.433003 -119.049705 217 512ft 0kts
30-Apr-18 11:28 35.433003 -119.049705 217 512ft 0kts
30-Apr-18 11:29 35.433003 -119.049705 217 512ft 0kts
30-Apr-18 11:30 35.433003 -119.049705 217 512ft 0kts
30-Apr-18 11:31 35.433003 -119.049705 217 512ft 0kts
30-Apr-18 11:32 35.433003 -119.049705 217 512ft 0kts
30-Apr-18 11:32 35.433003 -119.049705 217 512ft 0kts
30-Apr-18 11:33 35.433003 -119.049705 217 512ft 0kts
30-Apr-18 11:34 35.433003 -119.049705 217 512ft 0kts
30-Apr-18 11:35 35.433003 -119.049705 217 512ft 0kts
30-Apr-18 11:36 35.433003 -119.049705 217 512ft 0kts
30-Apr-18 11:38 35.433003 -119.049705 217 512ft 0kts
30-Apr-18 11:38 35.433003 -119.049705 217 512ft 0kts
30-Apr-18 11:39 35.433003 -119.049705 217 512ft 0kts
30-Apr-18 11:40 35.433003 -119.049705 217 512ft 0kts
30-Apr-18 11:41 35.433003 -119.049706 217 512ft 0kts
30-Apr-18 11:42 35.433003 -119.049706 217 512ft 0kts
30-Apr-18 11:43 35.432890 -119.049816 218 512ft 3kts
30-Apr-18 11:44 35.431419 -119.050849 137 512ft 7kts
30-Apr-18 11:45 35.430178 -119.049371 135 512ft 5kts
30-Apr-18 11:46 35.428718 -119.047637 136 512ft 8kts
30-Apr-18 11:47 35.426975 -119.045507 133 512ft 9kts
30-Apr-18 11:48 35.425984 -119.045703 227 512ft 0kts
30-Apr-18 11:49 35.425983 -119.045704 227 512ft 0kts
30-Apr-18 11:50 35.427001 -119.047881 316 512ft 35kts
30-Apr-18 11:51 35.445893 -119.071813 313 1378ft 119kts
30-Apr-18 11:52 35.470636 -119.103216 313 2824ft 136kts
30-Apr-18 11:53 35.499928 -119.135864 314 4258ft 146kts
30-Apr-18 11:54 35.533985 -119.164387 343 5669ft 157kts
30-Apr-18 11:55 35.579148 -119.165742 352 7085ft 166kts
30-Apr-18 11:56 35.626295 -119.165079 352 8493ft 172kts
30-Apr-18 11:57 35.671565 -119.178015 330 9901ft 167kts
30-Apr-18 11:58 35.716095 -119.197446 329 11285ft 172kts
30-Apr-18 11:59 35.764387 -119.218504 329 11961ft 205kts
30-Apr-18 12:00 35.822198 -119.243521 331 11963ft 230kts
30-Apr-18 12:01 35.883725 -119.270220 331 11968ft 236kts
30-Apr-18 12:02 35.946001 -119.297339 331 11958ft 237kts
30-Apr-18 12:03 36.008277 -119.324521 330 11960ft 238kts
30-Apr-18 12:04 36.070861 -119.351882 330 11963ft 237kts
30-Apr-18 12:05 36.132867 -119.379044 330 11963ft 236kts
30-Apr-18 12:06 36.194796 -119.406217 330 11962ft 236kts
30-Apr-18 12:07 36.257228 -119.433674 330 11961ft 239kts
30-Apr-18 12:08 36.319862 -119.461228 331 11959ft 238kts
30-Apr-18 12:09 36.379013 -119.493823 309 11976ft 223kts
30-Apr-18 12:10 36.426649 -119.545120 311 11964ft 225kts
30-Apr-18 12:11 36.474145 -119.595713 310 11966ft 225kts
30-Apr-18 12:12 36.521542 -119.646280 310 11979ft 225kts
30-Apr-18 12:13 36.569799 -119.697805 310 11966ft 227kts
30-Apr-18 12:14 36.617453 -119.748777 310 11968ft 225kts
30-Apr-18 12:15 36.665105 -119.799839 310 11969ft 225kts
30-Apr-18 12:16 36.712962 -119.851221 311 11359ft 230kts
30-Apr-18 12:17 36.761253 -119.903504 312 10188ft 228kts
30-Apr-18 12:18 36.808602 -119.954061 315 8977ft 215kts
30-Apr-18 12:19 36.853385 -120.002354 315 7763ft 208kts
30-Apr-18 12:20 36.895798 -120.048185 316 6735ft 194kts
30-Apr-18 12:21 36.935167 -120.090795 316 6032ft 180kts
30-Apr-18 12:22 36.975342 -120.134437 316 6020ft 200kts
30-Apr-18 12:23 37.018369 -120.181099 316 6032ft 209kts
30-Apr-18 12:24 37.063652 -120.230280 316 5464ft 214kts
30-Apr-18 12:25 37.107988 -120.278536 317 4448ft 206kts
30-Apr-18 12:26 37.150774 -120.325202 317 3457ft 202kts
30-Apr-18 12:27 37.192986 -120.371303 317 2451ft 196kts
30-Apr-18 12:28 37.230808 -120.413991 313 2037ft 171kts
30-Apr-18 12:29 37.266966 -120.452483 320 2056ft 159kts
30-Apr-18 12:30 37.298136 -120.484641 321 1650ft 130kts
30-Apr-18 12:31 37.324653 -120.511597 321 1220ft 110kts
30-Apr-18 12:32 37.347704 -120.535075 325 814ft 111kts
30-Apr-18 12:33 37.372335 -120.559931 322 195ft 97kts
30-Apr-18 12:34 37.373560 -120.564210 139 194ft 15kts
30-Apr-18 12:35 37.370595 -120.565396 231 194ft 0kts
30-Apr-18 12:36 37.370595 -120.565396 231 194ft 0kts

Navigation Log

Ident Type
Flight plan parsing failed, navigation log unavailable